createdAt,value
2017-12-25T00:00:36.269Z,0
2017-12-25T00:01:45.219Z,0
2017-12-25T00:02:54.160Z,0
2017-12-25T00:04:03.109Z,0
2017-12-25T00:05:12.565Z,0
2017-12-25T00:06:22.102Z,0
2017-12-25T00:07:31.328Z,0
2017-12-25T00:08:40.034Z,0
2017-12-25T00:09:49.820Z,0
2017-12-25T00:10:59.286Z,0
2017-12-25T00:12:08.011Z,0
2017-12-25T00:13:17.278Z,0
2017-12-25T00:14:26.775Z,0
2017-12-25T00:15:35.734Z,0
2017-12-25T00:16:44.936Z,0
2017-12-25T00:17:54.469Z,0
2017-12-25T00:19:03.509Z,0
2017-12-25T00:20:12.474Z,0
2017-12-25T00:21:21.703Z,0
2017-12-25T00:22:30.909Z,0
2017-12-25T00:23:39.882Z,0
2017-12-25T00:24:49.393Z,0
2017-12-25T00:25:58.093Z,0
2017-12-25T00:27:07.301Z,0
2017-12-25T00:28:16.005Z,0
2017-12-25T00:29:24.966Z,0
2017-12-25T00:30:33.907Z,0
2017-12-25T00:31:43.246Z,0
2017-12-25T00:32:52.227Z,0
2017-12-25T00:34:01.251Z,0
2017-12-25T00:35:10.225Z,0
2017-12-25T00:36:19.191Z,0
2017-12-25T00:37:28.664Z,0
2017-12-25T00:38:37.893Z,0
2017-12-25T00:39:47.115Z,0
2017-12-25T00:40:56.101Z,0
2017-12-25T00:42:05.054Z,0
2017-12-25T00:43:14.269Z,0
2017-12-25T00:44:23.476Z,0
2017-12-25T00:45:32.435Z,0
2017-12-25T00:46:41.421Z,0
2017-12-25T00:47:50.122Z,0
2017-12-25T00:48:58.842Z,0
2017-12-25T00:50:07.603Z,0
2017-12-25T00:51:16.832Z,0
2017-12-25T00:52:25.804Z,0
2017-12-25T00:53:34.800Z,0
2017-12-25T00:54:43.819Z,0
2017-12-25T00:55:52.780Z,0
2017-12-25T00:57:01.531Z,0
2017-12-25T00:58:11.013Z,0
2017-12-25T00:59:19.957Z,0
2017-12-25T01:00:28.745Z,0
2017-12-25T01:01:37.834Z,0
2017-12-25T01:02:46.831Z,0
2017-12-25T01:03:56.054Z,0
2017-12-25T01:05:04.888Z,0
2017-12-25T01:06:13.646Z,0
2017-12-25T01:07:22.609Z,0
2017-12-25T01:08:31.658Z,0
2017-12-25T01:09:40.937Z,0
2017-12-25T01:10:50.417Z,0
2017-12-25T01:11:59.627Z,0
2017-12-25T01:13:08.587Z,0
2017-12-25T01:14:18.127Z,0
2017-12-25T01:15:26.862Z,0
2017-12-25T01:16:36.083Z,0
2017-12-25T01:17:45.040Z,0
2017-12-25T01:18:54.238Z,0
2017-12-25T01:20:03.708Z,0
2017-12-25T01:21:12.652Z,0
2017-12-25T01:22:21.337Z,0
2017-12-25T01:23:30.541Z,0
2017-12-25T01:24:39.754Z,0
2017-12-25T01:25:48.699Z,0
2017-12-25T01:26:58.444Z,0
2017-12-25T01:28:07.139Z,0
2017-12-25T01:29:16.667Z,0
2017-12-25T01:30:25.888Z,0
2017-12-25T01:31:35.093Z,0
2017-12-25T01:32:44.047Z,0
2017-12-25T01:33:53.515Z,0
2017-12-25T01:35:02.464Z,0
2017-12-25T01:36:11.407Z,0
2017-12-25T01:37:20.347Z,0
2017-12-25T01:38:29.054Z,0
2017-12-25T01:39:38.527Z,0
2017-12-25T01:40:48.001Z,0
2017-12-25T01:41:56.695Z,0
2017-12-25T01:43:06.170Z,0
2017-12-25T01:44:15.114Z,0
2017-12-25T01:45:24.306Z,0
2017-12-25T01:46:33.781Z,0
2017-12-25T01:47:43.268Z,0
2017-12-25T01:48:51.946Z,0
2017-12-25T01:50:01.160Z,0
2017-12-25T01:51:09.834Z,0
2017-12-25T01:52:19.061Z,0
2017-12-25T01:53:28.300Z,0
2017-12-25T01:54:37.772Z,0
2017-12-25T01:55:46.729Z,0
2017-12-25T01:56:55.953Z,0
2017-12-25T01:58:04.645Z,0
2017-12-25T01:59:13.346Z,0
2017-12-25T02:00:22.296Z,0
2017-12-25T02:01:31.498Z,0
2017-12-25T02:02:40.702Z,0
2017-12-25T02:03:49.897Z,0
2017-12-25T02:04:59.111Z,0
2017-12-25T02:06:08.328Z,0
2017-12-25T02:07:17.542Z,0
2017-12-25T02:08:26.749Z,0
2017-12-25T02:09:36.207Z,0
2017-12-25T02:10:45.154Z,0
2017-12-25T02:11:54.112Z,0
2017-12-25T02:13:02.805Z,0
2017-12-25T02:14:12.007Z,0
2017-12-25T02:15:21.227Z,0
2017-12-25T02:16:30.428Z,0
2017-12-25T02:17:39.116Z,0
2017-12-25T02:18:47.809Z,0
2017-12-25T02:19:57.017Z,0
2017-12-25T02:21:06.475Z,0
2017-12-25T02:22:15.964Z,0
2017-12-25T02:23:25.430Z,0
2017-12-25T02:24:34.374Z,0
2017-12-25T02:25:43.595Z,0
2017-12-25T02:26:52.284Z,0
2017-12-25T02:28:02.054Z,0
2017-12-25T02:29:10.990Z,0
2017-12-25T02:30:19.940Z,0
2017-12-25T02:31:28.888Z,0
2017-12-25T02:32:38.088Z,0
2017-12-25T02:33:47.033Z,0
2017-12-25T02:34:56.240Z,0
2017-12-25T02:36:05.186Z,0
2017-12-25T02:37:14.425Z,0
2017-12-25T02:38:23.365Z,0
2017-12-25T02:39:32.561Z,0
2017-12-25T02:40:41.508Z,0
2017-12-25T02:41:50.756Z,0
2017-12-25T02:42:59.703Z,0
2017-12-25T02:44:08.921Z,0
2017-12-25T02:45:18.132Z,0
2017-12-25T02:46:27.605Z,0
2017-12-25T02:47:36.576Z,0
2017-12-25T02:48:45.285Z,0
2017-12-25T02:49:54.242Z,0
2017-12-25T02:51:03.718Z,0
2017-12-25T02:52:12.922Z,0
2017-12-25T02:53:21.598Z,0
2017-12-25T02:54:30.576Z,0
2017-12-25T02:55:39.790Z,0
2017-12-25T02:56:49.033Z,0
2017-12-25T02:57:57.970Z,0
2017-12-25T02:59:06.653Z,0
2017-12-25T03:00:15.336Z,0
2017-12-25T03:01:24.543Z,0
2017-12-25T03:02:33.257Z,0
2017-12-25T03:03:42.717Z,0
2017-12-25T03:04:52.183Z,0
2017-12-25T03:06:01.122Z,0
2017-12-25T03:07:10.615Z,0
2017-12-25T03:08:20.073Z,0
2017-12-25T03:09:29.552Z,0
2017-12-25T03:10:38.502Z,0
2017-12-25T03:11:47.437Z,0
2017-12-25T03:12:56.638Z,0
2017-12-25T03:14:05.574Z,0
2017-12-25T03:15:14.520Z,0
2017-12-25T03:16:23.234Z,0
2017-12-25T03:17:32.718Z,0
2017-12-25T03:18:41.930Z,0
2017-12-25T03:19:50.870Z,0
2017-12-25T03:21:00.336Z,0
2017-12-25T03:22:09.285Z,0
2017-12-25T03:23:18.487Z,0
2017-12-25T03:24:27.691Z,0
2017-12-25T03:25:37.157Z,0
2017-12-25T03:26:46.112Z,0
2017-12-25T03:27:55.055Z,0
2017-12-25T03:29:03.994Z,0
2017-12-25T03:30:13.202Z,0
2017-12-25T03:31:22.427Z,0
2017-12-25T03:32:31.119Z,0
2017-12-25T03:33:40.580Z,0
2017-12-25T03:34:49.256Z,0
2017-12-25T03:35:57.941Z,0
2017-12-25T03:37:06.907Z,0
2017-12-25T03:38:15.858Z,0
2017-12-25T03:39:24.798Z,0
2017-12-25T03:40:34.009Z,0
2017-12-25T03:41:43.466Z,0
2017-12-25T03:42:52.152Z,0
2017-12-25T03:44:01.107Z,0
2017-12-25T03:45:10.315Z,0
2017-12-25T03:46:18.992Z,0
2017-12-25T03:47:28.203Z,0
2017-12-25T03:48:37.142Z,0
2017-12-25T03:49:45.838Z,0
2017-12-25T03:50:54.517Z,0
2017-12-25T03:52:03.719Z,0
2017-12-25T03:53:12.930Z,0
2017-12-25T03:54:21.871Z,0
2017-12-25T03:55:31.085Z,0
2017-12-25T03:56:40.289Z,0
2017-12-25T03:57:49.251Z,0
2017-12-25T03:58:57.954Z,0
2017-12-25T04:00:07.166Z,0
2017-12-25T04:01:16.401Z,0
2017-12-25T04:02:25.354Z,0
2017-12-25T04:03:34.561Z,0
2017-12-25T04:04:43.259Z,0
2017-12-25T04:05:52.212Z,0
2017-12-25T04:07:00.926Z,0
2017-12-25T04:08:09.872Z,0
2017-12-25T04:09:18.816Z,0
2017-12-25T04:10:27.772Z,0
2017-12-25T04:11:36.989Z,0
2017-12-25T04:12:46.194Z,0
2017-12-25T04:13:55.403Z,0
2017-12-25T04:15:04.869Z,0
2017-12-25T04:16:14.091Z,0
2017-12-25T04:17:23.291Z,0
2017-12-25T04:18:32.498Z,0
2017-12-25T04:19:41.441Z,0
2017-12-25T04:20:50.906Z,0
2017-12-25T04:21:59.592Z,0
2017-12-25T04:23:08.802Z,0
2017-12-25T04:24:17.813Z,0
2017-12-25T04:25:26.753Z,0
2017-12-25T04:26:36.500Z,0
2017-12-25T04:27:45.985Z,0
2017-12-25T04:28:54.929Z,0
2017-12-25T04:30:04.403Z,0
2017-12-25T04:31:13.375Z,0
2017-12-25T04:32:22.853Z,0
2017-12-25T04:33:32.315Z,0
2017-12-25T04:34:41.003Z,0
2017-12-25T04:35:49.947Z,0
2017-12-25T04:36:58.937Z,0
2017-12-25T04:38:08.114Z,0
2017-12-25T04:39:17.058Z,0
2017-12-25T04:40:26.267Z,0
2017-12-25T04:41:35.213Z,0
2017-12-25T04:42:43.906Z,0
2017-12-25T04:43:52.854Z,0
2017-12-25T04:45:01.814Z,0
2017-12-25T04:46:10.513Z,0
2017-12-25T04:47:19.987Z,0
2017-12-25T04:48:29.197Z,0
2017-12-25T04:49:38.217Z,0
2017-12-25T04:50:47.419Z,0
2017-12-25T04:51:56.637Z,0
2017-12-25T04:53:05.584Z,0
2017-12-25T04:54:15.052Z,0
2017-12-25T04:55:24.540Z,0
2017-12-25T04:56:34.012Z,0
2017-12-25T04:57:42.684Z,0
2017-12-25T04:58:51.879Z,0
2017-12-25T05:00:01.105Z,0
2017-12-25T05:01:09.804Z,0
2017-12-25T05:02:18.510Z,0
2017-12-25T05:03:27.711Z,0
2017-12-25T05:04:36.669Z,0
2017-12-25T05:05:45.616Z,0
2017-12-25T05:06:54.831Z,0
2017-12-25T05:08:03.804Z,0
2017-12-25T05:09:12.740Z,0
2017-12-25T05:10:22.244Z,0
2017-12-25T05:11:31.195Z,0
2017-12-25T05:12:40.729Z,0
2017-12-25T05:13:50.235Z,0
2017-12-25T05:14:59.445Z,0
2017-12-25T05:16:08.925Z,0
2017-12-25T05:17:18.128Z,0
2017-12-25T05:18:27.336Z,0
2017-12-25T05:19:36.553Z,0
2017-12-25T05:20:45.771Z,0
2017-12-25T05:21:55.246Z,0
2017-12-25T05:23:04.704Z,0
2017-12-25T05:24:13.375Z,0
2017-12-25T05:25:22.052Z,0
2017-12-25T05:26:31.530Z,0
2017-12-25T05:27:40.995Z,0
2017-12-25T05:28:49.968Z,0
2017-12-25T05:29:59.429Z,0
2017-12-25T05:31:08.374Z,0
2017-12-25T05:32:17.327Z,0
2017-12-25T05:33:26.785Z,0
2017-12-25T05:34:35.515Z,0
2017-12-25T05:35:44.977Z,0
2017-12-25T05:36:54.441Z,0
2017-12-25T05:38:03.654Z,0
2017-12-25T05:39:12.867Z,0
2017-12-25T05:40:22.106Z,0
2017-12-25T05:41:31.835Z,0
2017-12-25T05:42:40.844Z,0
2017-12-25T05:43:50.305Z,0
2017-12-25T05:44:59.244Z,0
2017-12-25T05:46:08.189Z,0
2017-12-25T05:47:16.880Z,0
2017-12-25T05:48:26.085Z,0
2017-12-25T05:49:34.765Z,0
2017-12-25T05:50:43.725Z,0
2017-12-25T05:51:52.937Z,0
2017-12-25T05:53:01.623Z,0
2017-12-25T05:54:10.568Z,0
2017-12-25T05:55:19.516Z,0
2017-12-25T05:56:28.719Z,0
2017-12-25T05:57:38.499Z,0
2017-12-25T05:58:47.438Z,0
2017-12-25T05:59:56.391Z,0
2017-12-25T06:01:05.862Z,0
2017-12-25T06:02:14.632Z,0
2017-12-25T06:03:23.834Z,0
2017-12-25T06:04:33.324Z,0
2017-12-25T06:05:42.268Z,0
2017-12-25T06:06:51.742Z,0
2017-12-25T06:08:00.938Z,0
2017-12-25T06:09:10.414Z,0
2017-12-25T06:10:19.627Z,0
2017-12-25T06:11:28.565Z,0
2017-12-25T06:12:38.570Z,0
2017-12-25T06:13:47.581Z,0
2017-12-25T06:14:56.535Z,0
2017-12-25T06:16:05.761Z,0
2017-12-25T06:17:14.983Z,0
2017-12-25T06:18:23.921Z,0
2017-12-25T06:19:32.871Z,0
2017-12-25T06:20:41.838Z,0
2017-12-25T06:21:51.046Z,0
2017-12-25T06:23:00.261Z,0
2017-12-25T06:24:09.196Z,0
2017-12-25T06:25:18.929Z,0
2017-12-25T06:26:27.610Z,0
2017-12-25T06:27:36.294Z,0
2017-12-25T06:28:45.753Z,0
2017-12-25T06:29:54.957Z,0
2017-12-25T06:31:03.727Z,0
2017-12-25T06:32:12.943Z,0
2017-12-25T06:33:22.153Z,0
2017-12-25T06:34:31.359Z,0
2017-12-25T06:35:40.322Z,0
2017-12-25T06:36:49.267Z,0
2017-12-25T06:37:58.475Z,0
2017-12-25T06:39:07.420Z,0
2017-12-25T06:40:16.369Z,0
2017-12-25T06:41:25.864Z,0
2017-12-25T06:42:35.073Z,0
2017-12-25T06:43:44.282Z,0
2017-12-25T06:44:53.494Z,0
2017-12-25T06:46:02.450Z,0
2017-12-25T06:47:11.658Z,0
2017-12-25T06:48:20.343Z,0
2017-12-25T06:49:29.018Z,0
2017-12-25T06:50:37.701Z,0
2017-12-25T06:51:46.395Z,0
2017-12-25T06:52:56.180Z,0
2017-12-25T06:54:05.652Z,0
2017-12-25T06:55:14.579Z,0
2017-12-25T06:56:23.260Z,0
2017-12-25T06:57:32.798Z,0
2017-12-25T06:58:42.013Z,0
2017-12-25T06:59:51.223Z,0
2017-12-25T07:01:00.197Z,0
2017-12-25T07:02:08.947Z,0
2017-12-25T07:03:18.134Z,0
2017-12-25T07:04:27.080Z,0
2017-12-25T07:05:36.029Z,0
2017-12-25T07:06:44.985Z,0
2017-12-25T07:07:54.453Z,0
2017-12-25T07:09:03.707Z,0
2017-12-25T07:10:12.647Z,0
2017-12-25T07:11:22.146Z,0
2017-12-25T07:12:31.098Z,0
2017-12-25T07:13:39.798Z,0
2017-12-25T07:14:48.740Z,4
2017-12-25T07:15:57.694Z,4
2017-12-25T07:17:06.889Z,0
2017-12-25T07:18:16.089Z,0
2017-12-25T07:19:25.325Z,4
2017-12-25T07:20:34.528Z,4
2017-12-25T07:21:44.045Z,8
2017-12-25T07:22:53.261Z,4
2017-12-25T07:24:02.721Z,8
2017-12-25T07:25:11.951Z,8
2017-12-25T07:26:20.890Z,8
2017-12-25T07:27:30.548Z,8
2017-12-25T07:28:39.747Z,8
2017-12-25T07:29:48.946Z,8
2017-12-25T07:30:57.899Z,12
2017-12-25T07:32:07.391Z,12
2017-12-25T07:33:16.864Z,16
2017-12-25T07:34:25.550Z,16
2017-12-25T07:35:35.276Z,16
2017-12-25T07:36:43.962Z,20
2017-12-25T07:37:52.649Z,20
2017-12-25T07:39:01.587Z,20
2017-12-25T07:40:11.055Z,20
2017-12-25T07:41:20.535Z,24
2017-12-25T07:42:30.264Z,24
2017-12-25T07:43:39.470Z,28
2017-12-25T07:44:48.959Z,32
2017-12-25T07:45:58.431Z,36
2017-12-25T07:47:07.911Z,36
2017-12-25T07:48:17.643Z,36
2017-12-25T07:49:26.859Z,40
2017-12-25T07:50:35.813Z,40
2017-12-25T07:51:45.285Z,40
2017-12-25T07:52:54.489Z,44
2017-12-25T07:54:04.223Z,48
2017-12-25T07:55:13.187Z,52
2017-12-25T07:56:22.419Z,60
2017-12-25T07:57:31.915Z,60
2017-12-25T07:58:40.602Z,64
2017-12-25T07:59:49.554Z,56
2017-12-25T08:00:58.788Z,60
2017-12-25T08:02:07.752Z,64
2017-12-25T08:03:16.426Z,68
2017-12-25T08:04:25.642Z,72
2017-12-25T08:05:34.851Z,68
2017-12-25T08:06:43.796Z,92
2017-12-25T08:07:52.489Z,84
2017-12-25T08:09:01.425Z,72
2017-12-25T08:10:10.373Z,88
2017-12-25T08:11:19.590Z,96
2017-12-25T08:12:28.284Z,92
2017-12-25T08:13:37.505Z,92
2017-12-25T08:14:46.726Z,88
2017-12-25T08:15:55.671Z,92
2017-12-25T08:17:04.930Z,100
2017-12-25T08:18:14.151Z,104
2017-12-25T08:19:22.846Z,124
2017-12-25T08:20:32.055Z,120
2017-12-25T08:21:40.740Z,112
2017-12-25T08:22:49.951Z,96
2017-12-25T08:23:58.733Z,96
2017-12-25T08:25:07.419Z,84
2017-12-25T08:26:17.203Z,88
2017-12-25T08:27:26.669Z,96
2017-12-25T08:28:36.140Z,104
2017-12-25T08:29:44.836Z,124
2017-12-25T08:30:54.286Z,160
2017-12-25T08:32:03.762Z,184
2017-12-25T08:33:12.712Z,184
2017-12-25T08:34:21.641Z,172
2017-12-25T08:35:30.310Z,164
2017-12-25T08:36:39.776Z,164
2017-12-25T08:37:48.982Z,176
2017-12-25T08:38:58.208Z,164
2017-12-25T08:40:07.681Z,156
2017-12-25T08:41:16.879Z,144
2017-12-25T08:42:25.835Z,128
2017-12-25T08:43:35.050Z,136
2017-12-25T08:44:44.318Z,132
2017-12-25T08:45:53.775Z,140
2017-12-25T08:47:03.245Z,140
2017-12-25T08:48:12.180Z,144
2017-12-25T08:49:21.375Z,152
2017-12-25T08:50:30.584Z,152
2017-12-25T08:51:40.044Z,144
2017-12-25T08:52:49.519Z,136
2017-12-25T08:53:58.729Z,144
2017-12-25T08:55:07.961Z,164
2017-12-25T08:56:17.500Z,172
2017-12-25T08:57:26.433Z,188
2017-12-25T08:58:35.664Z,208
2017-12-25T08:59:44.863Z,244
2017-12-25T09:00:54.065Z,268
2017-12-25T09:02:03.015Z,256
2017-12-25T09:03:11.691Z,232
2017-12-25T09:04:20.908Z,216
2017-12-25T09:05:29.849Z,212
2017-12-25T09:06:39.315Z,212
2017-12-25T09:07:48.520Z,236
2017-12-25T09:08:57.768Z,236
2017-12-25T09:10:06.969Z,232
2017-12-25T09:11:16.185Z,224
2017-12-25T09:12:25.410Z,232
2017-12-25T09:13:35.149Z,244
2017-12-25T09:14:44.097Z,256
2017-12-25T09:15:52.774Z,276
2017-12-25T09:17:01.709Z,280
2017-12-25T09:18:11.186Z,288
2017-12-25T09:19:20.394Z,284
2017-12-25T09:20:29.074Z,264
2017-12-25T09:21:37.761Z,256
2017-12-25T09:22:46.701Z,280
2017-12-25T09:23:55.902Z,288
2017-12-25T09:25:05.108Z,292
2017-12-25T09:26:14.322Z,328
2017-12-25T09:27:23.542Z,340
2017-12-25T09:28:32.481Z,328
2017-12-25T09:29:41.183Z,316
2017-12-25T09:30:50.440Z,308
2017-12-25T09:31:59.634Z,332
2017-12-25T09:33:08.860Z,352
2017-12-25T09:34:18.322Z,352
2017-12-25T09:35:27.526Z,348
2017-12-25T09:36:36.985Z,344
2017-12-25T09:37:46.256Z,348
2017-12-25T09:38:55.195Z,372
2017-12-25T09:40:04.650Z,368
2017-12-25T09:41:13.874Z,396
2017-12-25T09:42:23.603Z,420
2017-12-25T09:43:33.052Z,416
2017-12-25T09:44:42.256Z,424
2017-12-25T09:45:51.732Z,412
2017-12-25T09:47:00.683Z,424
2017-12-25T09:48:09.886Z,452
2017-12-25T09:49:18.830Z,432
2017-12-25T09:50:28.025Z,416
2017-12-25T09:51:37.758Z,416
2017-12-25T09:52:46.424Z,404
2017-12-25T09:53:55.894Z,400
2017-12-25T09:55:04.580Z,364
2017-12-25T09:56:13.258Z,388
2017-12-25T09:57:22.207Z,432
2017-12-25T09:58:31.192Z,488
2017-12-25T09:59:40.143Z,508
2017-12-25T10:00:49.346Z,480
2017-12-25T10:01:58.281Z,468
2017-12-25T10:03:07.969Z,456
2017-12-25T10:04:17.174Z,460
2017-12-25T10:05:26.911Z,460
2017-12-25T10:06:35.603Z,448
2017-12-25T10:07:44.808Z,436
2017-12-25T10:08:53.495Z,456
2017-12-25T10:10:03.239Z,504
2017-12-25T10:11:12.705Z,580
2017-12-25T10:12:22.475Z,608
2017-12-25T10:13:31.938Z,540
2017-12-25T10:14:40.880Z,544
2017-12-25T10:15:49.828Z,612
2017-12-25T10:16:58.761Z,560
2017-12-25T10:18:07.448Z,504
2017-12-25T10:19:16.650Z,500
2017-12-25T10:20:26.114Z,508
2017-12-25T10:21:34.794Z,556
2017-12-25T10:22:43.989Z,624
2017-12-25T10:23:53.453Z,640
2017-12-25T10:25:03.229Z,648
2017-12-25T10:26:12.477Z,576
2017-12-25T10:27:21.680Z,520
2017-12-25T10:28:30.645Z,544
2017-12-25T10:29:39.843Z,612
2017-12-25T10:30:48.788Z,656
2017-12-25T10:31:58.275Z,748
2017-12-25T10:33:07.221Z,728
2017-12-25T10:34:16.685Z,664
2017-12-25T10:35:25.371Z,624
2017-12-25T10:36:34.594Z,624
2017-12-25T10:37:44.059Z,616
2017-12-25T10:38:52.740Z,636
2017-12-25T10:40:01.421Z,588
2017-12-25T10:41:10.630Z,700
2017-12-25T10:42:20.096Z,696
2017-12-25T10:43:29.043Z,768
2017-12-25T10:44:37.982Z,728
2017-12-25T10:45:46.935Z,740
2017-12-25T10:46:56.166Z,788
2017-12-25T10:48:05.115Z,812
2017-12-25T10:49:14.588Z,720
2017-12-25T10:50:23.793Z,636
2017-12-25T10:51:32.768Z,744
2017-12-25T10:52:41.727Z,772
2017-12-25T10:53:50.685Z,652
2017-12-25T10:54:59.907Z,696
2017-12-25T10:56:09.381Z,792
2017-12-25T10:57:18.850Z,804
2017-12-25T10:58:27.536Z,800
2017-12-25T10:59:36.751Z,820
2017-12-25T11:00:46.247Z,792
2017-12-25T11:01:55.720Z,876
2017-12-25T11:03:05.222Z,828
2017-12-25T11:04:14.157Z,900
2017-12-25T11:05:23.120Z,1004
2017-12-25T11:06:32.333Z,1140
2017-12-25T11:07:41.357Z,1292
2017-12-25T11:08:50.863Z,1408
2017-12-25T11:09:59.802Z,1476
2017-12-25T11:11:09.027Z,1468
2017-12-25T11:12:17.970Z,1364
2017-12-25T11:13:27.178Z,1264
2017-12-25T11:14:36.137Z,1164
2017-12-25T11:15:45.087Z,976
2017-12-25T11:16:54.027Z,892
2017-12-25T11:18:03.503Z,984
2017-12-25T11:19:12.997Z,1124
2017-12-25T11:20:21.974Z,1140
2017-12-25T11:21:31.016Z,1320
2017-12-25T11:22:39.718Z,1368
2017-12-25T11:23:49.050Z,1372
2017-12-25T11:24:58.282Z,1180
2017-12-25T11:26:07.232Z,1152
2017-12-25T11:27:16.451Z,1224
2017-12-25T11:28:25.675Z,1060
2017-12-25T11:29:34.888Z,1096
2017-12-25T11:30:43.877Z,1208
2017-12-25T11:31:53.114Z,1292
2017-12-25T11:33:02.406Z,1340
2017-12-25T11:34:11.615Z,1284
2017-12-25T11:35:20.578Z,1172
2017-12-25T11:36:30.057Z,1016
2017-12-25T11:37:39.299Z,932
2017-12-25T11:38:48.547Z,928
2017-12-25T11:39:57.500Z,812
2017-12-25T11:41:06.989Z,840
2017-12-25T11:42:15.749Z,952
2017-12-25T11:43:25.472Z,1056
2017-12-25T11:44:34.410Z,1088
2017-12-25T11:45:43.607Z,1028
2017-12-25T11:46:52.559Z,948
2017-12-25T11:48:01.504Z,900
2017-12-25T11:49:11.263Z,764
2017-12-25T11:50:20.464Z,720
2017-12-25T11:51:29.432Z,780
2017-12-25T11:52:38.374Z,764
2017-12-25T11:53:47.568Z,876
2017-12-25T11:54:57.044Z,1072
2017-12-25T11:56:06.004Z,984
2017-12-25T11:57:14.968Z,976
2017-12-25T11:58:24.428Z,1008
2017-12-25T11:59:33.908Z,1024
2017-12-25T12:00:43.377Z,996
2017-12-25T12:01:52.841Z,944
2017-12-25T12:03:02.305Z,916
2017-12-25T12:04:11.513Z,908
2017-12-25T12:05:20.451Z,960
2017-12-25T12:06:29.389Z,1048
2017-12-25T12:07:38.320Z,1140
2017-12-25T12:08:47.333Z,1164
2017-12-25T12:09:56.536Z,1020
2017-12-25T12:11:05.486Z,984
2017-12-25T12:12:14.685Z,840
2017-12-25T12:13:23.388Z,760
2017-12-25T12:14:32.601Z,740
2017-12-25T12:15:42.067Z,720
2017-12-25T12:16:50.759Z,680
2017-12-25T12:17:59.709Z,824
2017-12-25T12:19:08.912Z,776
2017-12-25T12:20:18.390Z,672
2017-12-25T12:21:27.599Z,748
2017-12-25T12:22:37.066Z,704
2017-12-25T12:23:46.277Z,748
2017-12-25T12:24:55.229Z,780
2017-12-25T12:26:04.182Z,784
2017-12-25T12:27:13.140Z,908
2017-12-25T12:28:22.087Z,984
2017-12-25T12:29:31.568Z,792
2017-12-25T12:30:40.783Z,680
2017-12-25T12:31:50.248Z,752
2017-12-25T12:32:59.713Z,744
2017-12-25T12:34:08.658Z,668
2017-12-25T12:35:17.356Z,684
2017-12-25T12:36:26.298Z,816
2017-12-25T12:37:35.503Z,824
2017-12-25T12:38:44.701Z,772
2017-12-25T12:39:53.913Z,832
2017-12-25T12:41:03.135Z,748
2017-12-25T12:42:12.082Z,844
2017-12-25T12:43:21.028Z,852
2017-12-25T12:44:30.089Z,820
2017-12-25T12:45:39.298Z,780
2017-12-25T12:46:48.256Z,772
2017-12-25T12:47:56.931Z,728
2017-12-25T12:49:05.620Z,776
2017-12-25T12:50:14.577Z,744
2017-12-25T12:51:23.261Z,688
2017-12-25T12:52:32.218Z,648
2017-12-25T12:53:40.894Z,660
2017-12-25T12:54:49.857Z,796
2017-12-25T12:55:59.071Z,860
2017-12-25T12:57:08.529Z,788
2017-12-25T12:58:17.223Z,764
2017-12-25T12:59:25.900Z,792
2017-12-25T13:00:35.111Z,700
2017-12-25T13:01:44.569Z,684
2017-12-25T13:02:53.533Z,668
2017-12-25T13:04:02.490Z,856
2017-12-25T13:05:11.697Z,848
2017-12-25T13:06:20.965Z,756
2017-12-25T13:07:30.210Z,684
2017-12-25T13:08:38.884Z,740
2017-12-25T13:09:47.576Z,692
2017-12-25T13:10:56.787Z,716
2017-12-25T13:12:06.009Z,676
2017-12-25T13:13:14.958Z,724
2017-12-25T13:14:23.639Z,708
2017-12-25T13:15:32.878Z,632
2017-12-25T13:16:41.831Z,612
2017-12-25T13:17:50.535Z,576
2017-12-25T13:19:00.000Z,592
2017-12-25T13:20:09.223Z,632
2017-12-25T13:21:18.173Z,624
2017-12-25T13:22:27.128Z,608
2017-12-25T13:23:36.124Z,556
2017-12-25T13:24:45.072Z,504
2017-12-25T13:25:54.815Z,404
2017-12-25T13:27:04.275Z,372
2017-12-25T13:28:13.222Z,408
2017-12-25T13:29:22.709Z,428
2017-12-25T13:30:31.915Z,416
2017-12-25T13:31:41.662Z,436
2017-12-25T13:32:50.611Z,468
2017-12-25T13:33:59.552Z,516
2017-12-25T13:35:08.237Z,536
2017-12-25T13:36:17.190Z,592
2017-12-25T13:37:26.398Z,672
2017-12-25T13:38:35.877Z,628
2017-12-25T13:39:44.824Z,636
2017-12-25T13:40:53.769Z,612
2017-12-25T13:42:03.248Z,568
2017-12-25T13:43:12.472Z,596
2017-12-25T13:44:21.448Z,596
2017-12-25T13:45:30.398Z,640
2017-12-25T13:46:39.342Z,584
2017-12-25T13:47:48.351Z,500
2017-12-25T13:48:57.589Z,504
2017-12-25T13:50:07.325Z,516
2017-12-25T13:51:17.071Z,516
2017-12-25T13:52:26.296Z,536
2017-12-25T13:53:35.249Z,560
2017-12-25T13:54:44.514Z,516
2017-12-25T13:55:54.238Z,504
2017-12-25T13:57:03.492Z,492
2017-12-25T13:58:12.182Z,472
2017-12-25T13:59:21.145Z,468
2017-12-25T14:00:30.349Z,436
2017-12-25T14:01:39.282Z,424
2017-12-25T14:02:48.485Z,404
2017-12-25T14:03:57.456Z,332
2017-12-25T14:05:06.679Z,428
2017-12-25T14:06:15.895Z,400
2017-12-25T14:07:25.361Z,352
2017-12-25T14:08:34.832Z,332
2017-12-25T14:09:44.045Z,340
2017-12-25T14:10:53.532Z,348
2017-12-25T14:12:02.467Z,356
2017-12-25T14:13:11.147Z,340
2017-12-25T14:14:20.353Z,332
2017-12-25T14:15:29.570Z,316
2017-12-25T14:16:39.032Z,304
2017-12-25T14:17:47.981Z,324
2017-12-25T14:18:56.939Z,328
2017-12-25T14:20:06.410Z,356
2017-12-25T14:21:15.635Z,360
2017-12-25T14:22:24.585Z,380
2017-12-25T14:23:34.495Z,380
2017-12-25T14:24:43.445Z,360
2017-12-25T14:25:52.394Z,340
2017-12-25T14:27:02.135Z,368
2017-12-25T14:28:11.609Z,364
2017-12-25T14:29:20.599Z,376
2017-12-25T14:30:29.532Z,380
2017-12-25T14:31:38.746Z,360
2017-12-25T14:32:47.750Z,344
2017-12-25T14:33:57.240Z,308
2017-12-25T14:35:06.453Z,276
2017-12-25T14:36:15.676Z,248
2017-12-25T14:37:24.637Z,224
2017-12-25T14:38:33.833Z,204
2017-12-25T14:39:43.077Z,196
2017-12-25T14:40:52.556Z,200
2017-12-25T14:42:01.806Z,208
2017-12-25T14:43:11.290Z,212
2017-12-25T14:44:20.509Z,208
2017-12-25T14:45:29.973Z,212
2017-12-25T14:46:39.181Z,224
2017-12-25T14:47:47.893Z,240
2017-12-25T14:48:57.188Z,240
2017-12-25T14:50:06.443Z,224
2017-12-25T14:51:15.400Z,196
2017-12-25T14:52:24.094Z,176
2017-12-25T14:53:33.306Z,168
2017-12-25T14:54:42.047Z,164
2017-12-25T14:55:51.506Z,156
2017-12-25T14:57:00.735Z,148
2017-12-25T14:58:09.684Z,136
2017-12-25T14:59:18.371Z,132
2017-12-25T15:00:27.574Z,128
2017-12-25T15:01:36.537Z,120
2017-12-25T15:02:45.997Z,120
2017-12-25T15:03:54.943Z,108
2017-12-25T15:05:03.689Z,108
2017-12-25T15:06:12.395Z,100
2017-12-25T15:07:21.601Z,100
2017-12-25T15:08:30.542Z,96
2017-12-25T15:09:39.492Z,96
2017-12-25T15:10:48.183Z,96
2017-12-25T15:11:57.129Z,96
2017-12-25T15:13:06.077Z,92
2017-12-25T15:14:15.020Z,88
2017-12-25T15:15:23.969Z,84
2017-12-25T15:16:33.173Z,80
2017-12-25T15:17:41.844Z,80
2017-12-25T15:18:51.309Z,76
2017-12-25T15:20:00.246Z,72
2017-12-25T15:21:09.451Z,68
2017-12-25T15:22:18.659Z,60
2017-12-25T15:23:27.598Z,60
2017-12-25T15:24:36.550Z,52
2017-12-25T15:25:45.742Z,48
2017-12-25T15:26:54.704Z,44
2017-12-25T15:28:04.169Z,40
2017-12-25T15:29:13.455Z,36
2017-12-25T15:30:22.940Z,36
2017-12-25T15:31:32.146Z,32
2017-12-25T15:32:40.832Z,28
2017-12-25T15:33:50.310Z,24
2017-12-25T15:34:59.247Z,24
2017-12-25T15:36:08.184Z,20
2017-12-25T15:37:17.129Z,16
2017-12-25T15:38:26.068Z,16
2017-12-25T15:39:35.538Z,16
2017-12-25T15:40:44.745Z,16
2017-12-25T15:41:53.425Z,12
2017-12-25T15:43:02.920Z,12
2017-12-25T15:44:12.374Z,8
2017-12-25T15:45:21.857Z,8
2017-12-25T15:46:31.057Z,8
2017-12-25T15:47:39.998Z,8
2017-12-25T15:48:49.228Z,4
2017-12-25T15:49:58.173Z,4
2017-12-25T15:51:07.641Z,4
2017-12-25T15:52:16.856Z,0
2017-12-25T15:53:26.329Z,4
2017-12-25T15:54:35.822Z,4
2017-12-25T15:55:45.231Z,0
2017-12-25T15:56:54.170Z,0
2017-12-25T15:58:03.647Z,0
2017-12-25T15:59:12.841Z,0
2017-12-25T16:00:21.524Z,0
2017-12-25T16:01:30.729Z,0
2017-12-25T16:02:39.410Z,0
2017-12-25T16:03:48.604Z,0
2017-12-25T16:04:57.540Z,0
2017-12-25T16:06:06.229Z,0
2017-12-25T16:07:15.171Z,0
2017-12-25T16:08:24.370Z,0
2017-12-25T16:09:33.047Z,0
2017-12-25T16:10:42.279Z,0
2017-12-25T16:11:51.227Z,0
2017-12-25T16:13:00.705Z,0
2017-12-25T16:14:09.644Z,0
2017-12-25T16:15:19.396Z,0
2017-12-25T16:16:28.345Z,0
2017-12-25T16:17:37.294Z,0
2017-12-25T16:18:45.998Z,0
2017-12-25T16:19:54.964Z,0
2017-12-25T16:21:04.446Z,0
2017-12-25T16:22:13.386Z,0
2017-12-25T16:23:22.326Z,0
2017-12-25T16:24:31.270Z,0
2017-12-25T16:25:40.218Z,0
2017-12-25T16:26:49.697Z,0
2017-12-25T16:27:58.707Z,0